Latest Weather Observations for Dalby

IDQ60801

Issued at 11:02 pm EST Wednesday 24 May 2017 (issued every 30 minutes, with the page automatically refreshed every 10 minutes)

About weather observations | Map of weather stations | Latest weather observations for QLD | Other Formats
Station Details ID: 041522 Name: DALBY AIRPORT Lat: -27.16 Lon: 151.26 Height: 343.9 m
Data from the previous 72 hours. | See also: Recent months at Dalby
Date/Time
EST
Temp
°C
App
Temp
°C
Dew
Point
°C
Rel
Hum
%
Delta-T
°C
Wind Press
QNH
hPa
Press
MSL
hPa
Rain since
9am
mm
Dir  Spd
km/h
Gust
km/h
Spd
kts
Gust
kts
24/11:00pm 17.7 14.5 10.1 61 4.1 SSW 17 22 9 12 1019.2 1018.6 0.0
24/10:30pm 18.4 14.8 10.0 58 4.5 SSW 19 24 10 13 1019.2 1018.6 0.0
24/10:00pm 19.2 15.4 9.1 52 5.4 SSW 19 24 10 13 1019.0 1018.4 0.0
24/09:30pm 18.2 15.3 8.2 52 5.2 SW 13 15 7 8 1018.8 1018.1 0.0
24/09:00pm 18.5 16.2 9.0 54 5.0 SW 11 13 6 7 1018.5 1017.8 0.0
24/08:30pm 17.6 15.7 9.0 57 4.5 SW 9 11 5 6 1018.3 1017.6 0.0
24/08:00pm 16.8 14.9 7.4 54 4.8 SSW 7 9 4 5 1018.0 1017.3 0.0
24/07:30pm 17.6 16.0 6.2 47 5.7 WNW 4 6 2 3 1017.6 1017.0 0.0
24/07:00pm 18.6 17.9 6.8 46 6.0 CALM 0 0 0 0 1017.3 1016.7 0.0
24/06:30pm 19.6 17.5 6.7 43 6.6 NW 7 9 4 5 1017.1 1016.5 0.0
24/06:00pm 20.8 18.3 6.7 40 7.3 W 9 9 5 5 1016.9 1016.3 0.0
24/05:30pm 22.4 20.0 7.0 37 8.1 W 9 11 5 6 1016.7 1016.1 0.0
24/05:00pm 24.7 21.5 6.9 32 9.4 W 13 19 7 10 1016.5 1015.9 0.0
24/04:30pm 26.6 22.6 6.6 28 10.7 WSW 17 24 9 13 1016.3 1015.6 0.0
24/04:00pm 27.3 22.9 6.7 27 11.0 WSW 19 24 10 13 1016.3 1015.6 0.0
24/03:30pm 27.7 23.4 7.0 27 11.2 SW 19 28 10 15 1016.2 1015.5 0.0
24/03:00pm 27.5 23.2 6.8 27 11.1 SW 19 30 10 16 1016.2 1015.5 0.0
24/02:30pm 27.6 23.4 7.5 28 10.9 SW 19 26 10 14 1016.3 1015.6 0.0
24/02:00pm 27.6 23.2 7.5 28 10.9 WSW 20 32 11 17 1016.6 1016.0 0.0
24/01:30pm 27.4 23.0 7.3 28 10.9 WSW 20 35 11 19 1016.9 1016.3 0.0
24/01:00pm 27.1 22.2 7.0 28 10.8 W 22 32 12 17 1017.3 1016.7 0.0
24/12:30pm 26.4 22.4 8.4 32 9.9 WNW 19 32 10 17 1018.0 1017.3 0.0
24/12:00pm 26.0 21.9 8.0 32 9.8 WNW 19 26 10 14 1018.5 1017.8 0.0
24/11:30am 25.6 21.6 8.1 33 9.5 WNW 19 28 10 15 1019.1 1018.5 0.0
24/11:00am 24.6 20.8 9.0 37 8.6 WNW 19 26 10 14 1019.7 1019.1 0.0
24/10:30am 24.2 21.0 10.1 41 7.9 WNW 17 22 9 12 1020.2 1019.6 0.0
24/10:00am 23.0 19.8 11.1 47 6.7 NW 19 22 10 12 1020.5 1019.9 0.0
24/09:30am 21.5 18.7 11.2 52 5.8 NW 17 22 9 12 1020.6 1020.0 0.0
24/09:00am 19.6 17.6 11.6 60 4.5 NW 13 19 7 10 1021.0 1020.3 0.0
24/08:30am 17.6 16.5 11.9 69 3.2 NNW 9 11 5 6 1020.8 1020.2 0.0
24/08:00am 14.9 13.8 9.9 72 2.6 SSE 6 7 3 4 1020.6 1020.0 0.0
24/07:30am 12.1 11.6 9.5 84 1.3 SSW 2 7 1 4 1020.4 1019.8 0.0
24/07:00am 8.9 7.2 6.0 82 1.3 NNE 4 7 2 4 1020.0 1019.4 0.0
24/06:30am 8.5 6.2 5.8 83 1.3 N 7 9 4 5 1019.8 1019.2 0.0
24/06:00am 8.2 5.8 5.3 82 1.3 N 7 9 4 5 1019.7 1019.1 0.0
24/05:30am 8.9 6.6 5.8 81 1.4 N 7 7 4 4 1019.6 1019.0 0.0
24/05:00am 9.1 6.9 6.4 83 1.3 NNE 7 7 4 4 1019.3 1018.7 0.0
24/04:30am 8.5 5.9 6.0 84 1.2 NNE 9 11 5 6 1019.2 1018.6 0.0
24/04:00am 8.9 6.7 6.0 82 1.3 NE 7 9 4 5 1019.2 1018.6 0.0
24/03:30am 9.9 7.5 7.0 82 1.4 NNE 9 9 5 5 1019.2 1018.6 0.0
24/03:00am 10.3 9.8 7.7 84 1.3 CALM 0 0 0 0 1019.2 1018.6 0.0
24/02:30am 11.7 10.3 8.9 83 1.4 SSE 6 7 3 4 1019.4 1018.8 0.0
24/02:00am 12.0 9.8 9.2 83 1.4 SSW 11 17 6 9 1019.7 1019.1 0.0
24/01:30am 11.3 9.5 7.8 79 1.7 E 7 9 4 5 1019.7 1019.1 0.0
24/01:00am 11.2 9.3 7.5 78 1.8 ENE 7 7 4 4 1019.8 1019.2 0.0
24/12:30am 11.8 9.3 8.1 78 1.8 NE 11 11 6 6 1020.1 1019.5 0.0
24/12:00am 11.9 10.1 7.8 76 2.0 E 7 9 4 5 1020.6 1020.0 0.0
 
Date/Time
EST
Temp
°C
App
Temp
°C
Dew
Point
°C
Rel
Hum
%
Delta-T
°C
Wind Press
QNH
hPa
Press
MSL
hPa
Rain since
9am
mm
Dir  Spd
km/h
Gust
km/h
Spd
kts
Gust
kts
23/11:30pm 12.4 9.5 8.1 75 2.2 E 13 15 7 8 1020.7 1020.1 0.0
23/11:00pm 12.6 10.2 8.5 76 2.1 E 11 15 6 8 1021.0 1020.3 0.0
23/10:30pm 12.6 10.0 7.9 73 2.4 ESE 11 13 6 7 1021.1 1020.4 0.0
23/10:00pm 13.4 11.4 8.7 73 2.4 ESE 9 11 5 6 1020.8 1020.2 0.0
23/09:30pm 14.7 13.2 9.3 70 2.8 ESE 7 9 4 5 1020.8 1020.2 0.0
23/09:00pm 14.6 13.7 7.6 63 3.5 SE 2 6 1 3 1020.7 1020.1 0.0
23/08:30pm 14.9 13.0 7.7 62 3.6 E 7 9 4 5 1020.6 1020.0 0.0
23/08:00pm 16.8 16.3 8.0 56 4.5 CALM 0 0 0 0 1020.4 1019.8 0.0
23/07:30pm 16.0 14.1 9.0 63 3.7 ESE 9 17 5 9 1020.3 1019.7 0.0
23/07:00pm 17.2 15.6 7.8 54 4.8 SSW 6 7 3 4 1019.9 1019.3 0.0
23/06:30pm 19.3 17.4 8.9 51 5.5 SSW 9 9 5 5 1019.7 1019.1 0.0
23/06:00pm 20.0 17.9 8.4 47 6.1 SW 9 11 5 6 1019.5 1018.9 0.0
23/05:30pm 21.4 19.1 7.3 40 7.4 SW 9 9 5 5 1019.2 1018.6 0.0
23/05:00pm 23.9 21.5 7.1 34 8.9 SSW 9 11 5 6 1019.0 1018.4 0.0
23/04:30pm 25.3 22.5 7.0 31 9.7 SW 11 19 6 10 1018.8 1018.1 0.0
23/04:00pm 26.1 23.0 7.2 30 10.1 WSW 13 22 7 12 1018.6 1017.9 0.0
23/03:30pm 25.6 22.8 6.8 30 10.0 S 11 19 6 10 1018.5 1017.8 0.0
23/03:00pm 25.7 23.4 7.3 31 9.9 WSW 9 17 5 9 1018.6 1017.9 0.0
23/02:30pm 26.1 22.6 7.2 30 10.1 WSW 15 20 8 11 1018.8 1018.1 0.0
23/02:00pm 25.6 23.0 7.7 32 9.6 SSW 11 20 6 11 1018.9 1018.3 0.0
23/01:30pm 25.5 24.0 8.5 34 9.3 SSW 6 15 3 8 1019.2 1018.6 0.0
23/01:00pm 25.0 22.5 8.1 34 9.1 SSW 11 17 6 9 1019.7 1019.1 0.0
23/12:30pm 25.3 23.6 8.3 34 9.3 N 7 13 4 7 1020.3 1019.7 0.0
23/12:00pm 24.8 22.6 9.5 38 8.5 W 11 19 6 10 1020.8 1020.2 0.0
23/11:30am 24.0 22.3 11.3 45 7.2 NW 11 19 6 10 1021.4 1020.8 0.0
23/11:00am 22.2 20.9 12.5 54 5.6 WNW 11 17 6 9 1022.1 1021.5 0.0
23/10:30am 20.7 19.5 12.7 60 4.6 WNW 11 15 6 8 1022.5 1021.9 0.0
23/10:00am 20.4 19.5 13.8 66 3.8 WNW 11 17 6 9 1022.9 1022.3 0.0
23/09:30am 18.6 18.1 13.7 73 2.8 NNW 9 15 5 8 1023.1 1022.5 0.0
23/09:00am 17.3 16.7 13.4 78 2.2 NNE 9 11 5 6 1023.1 1022.5 0.2
23/08:30am 14.7 14.4 13.2 91 0.8 NE 7 11 4 6 1023.1 1022.5 0.2
23/08:00am 13.3 12.4 11.2 87 1.1 NNE 7 9 4 5 1022.8 1022.2 0.2
23/07:30am 12.4 11.4 11.1 92 0.7 NE 7 9 4 5 1022.7 1022.1 0.2
23/07:00am 11.5 10.3 10.2 92 0.7 SE 7 9 4 5 1022.3 1021.7 0.2
23/06:30am 10.5 9.1 8.9 90 0.8 SSE 6 9 3 5 1022.0 1021.4 0.2
23/06:00am 11.3 9.6 9.9 91 0.7 SE 9 13 5 7 1021.6 1021.0 0.2
23/05:30am 11.9 10.0 10.5 91 0.7 SE 11 13 6 7 1021.4 1020.8 0.2
23/05:00am 13.0 11.7 11.4 90 0.9 SSE 9 13 5 7 1021.2 1020.5 0.2
23/04:30am 13.1 11.5 11.7 91 0.8 SE 11 15 6 8 1020.8 1020.2 0.2
23/04:00am 13.6 12.6 12.2 91 0.8 SSE 9 11 5 6 1020.8 1020.2 0.2
23/03:30am 13.5 12.4 11.9 90 0.9 E 9 11 5 6 1020.8 1020.2 0.2
23/03:00am 13.7 12.3 12.1 90 0.9 E 11 13 6 7 1020.8 1020.2 0.2
23/02:30am 14.0 13.0 12.4 90 0.9 E 9 13 5 7 1020.7 1020.1 0.2
23/02:00am 14.7 13.2 13.1 90 0.9 E 13 17 7 9 1020.8 1020.2 0.2
23/01:30am 14.8 13.0 13.2 90 0.9 E 15 17 8 9 1021.1 1020.4 0.2
23/01:00am 14.6 13.1 13.0 90 0.9 E 13 17 7 9 1021.3 1020.6 0.2
23/12:30am 14.6 12.6 12.8 89 1.0 ESE 15 19 8 10 1021.4 1020.8 0.2
23/12:00am 14.8 12.6 13.2 90 0.9 ESE 17 19 9 10 1021.3 1020.6 0.2
 
Date/Time
EST
Temp
°C
App
Temp
°C
Dew
Point
°C
Rel
Hum
%
Delta-T
°C
Wind Press
QNH
hPa
Press
MSL
hPa
Rain since
9am
mm
Dir  Spd
km/h
Gust
km/h
Spd
kts
Gust
kts
22/11:30pm 14.3 12.2 12.3 88 1.1 ESE 15 19 8 10 1021.5 1020.9 0.2
22/11:00pm 15.5 13.7 13.2 86 1.3 E 15 19 8 10 1021.6 1021.0 0.2
22/10:30pm 16.0 13.8 13.3 84 1.5 E 17 20 9 11 1021.7 1021.1 0.2
22/10:00pm 15.4 13.0 12.5 83 1.6 E 17 17 9 9 1021.8 1021.2 0.2
22/09:30pm 15.7 14.0 12.5 81 1.8 E 13 15 7 8 1021.8 1021.2 0.2
22/09:00pm 15.9 13.4 12.3 79 2.0 E 17 19 9 10 1021.7 1021.1 0.2
22/08:30pm 16.0 13.7 11.8 76 2.3 E 15 17 8 9 1021.7 1021.1 0.2
22/08:00pm 16.5 14.6 11.9 74 2.5 E 13 15 7 8 1021.4 1020.8 0.2
22/07:30pm 17.6 15.3 11.9 69 3.2 E 15 17 8 9 1021.1 1020.4 0.2
22/07:00pm 18.6 16.3 11.9 65 3.7 E 15 19 8 10 1020.6 1020.0 0.2
22/06:30pm 19.8 17.1 11.6 59 4.6 ENE 17 22 9 12 1020.2 1019.6 0.2
22/06:00pm 19.2 16.5 10.5 57 4.8 E 15 17 8 9 1019.9 1019.3 0.2
22/05:30pm 20.7 18.3 9.9 50 5.9 E 13 15 7 8 1019.6 1019.0 0.2
22/05:00pm 23.2 20.7 9.6 42 7.5 ESE 13 17 7 9 1019.4 1018.8 0.2
22/04:30pm 24.9 21.7 10.0 39 8.3 SE 17 24 9 13 1019.2 1018.6 0.2
22/04:00pm 25.6 22.3 8.1 33 9.5 SE 15 22 8 12 1019.1 1018.5 0.2
22/03:30pm 25.9 22.7 8.4 33 9.6 S 15 19 8 10 1019.0 1018.4 0.2
22/03:00pm 25.6 22.3 8.1 33 9.5 SSE 15 22 8 12 1019.0 1018.4 0.2
22/02:30pm 25.8 22.9 8.3 33 9.6 SSE 13 32 7 17 1019.2 1018.6 0.2
22/02:00pm 25.7 23.1 9.5 36 9.0 SSE 13 19 7 10 1019.5 1018.9 0.2
22/01:30pm 25.5 24.4 10.5 39 8.5 SSE 7 15 4 8 1019.6 1019.0 0.2
22/01:00pm 25.4 22.9 9.7 37 8.7 SSE 13 24 7 13 1019.9 1019.3 0.2
22/12:30pm 24.8 22.7 9.9 39 8.3 SSE 11 20 6 11 1020.3 1019.7 0.2
22/12:00pm 24.6 23.2 10.8 42 7.8 ESE 9 19 5 10 1020.7 1020.1 0.2
22/11:30am 23.8 22.7 11.8 47 6.9 SSE 9 15 5 8 1021.3 1020.6 0.2
22/11:00am 23.4 23.6 13.0 52 6.1 SE 4 13 2 7 1021.8 1021.2 0.2
22/10:30am 22.7 21.8 12.6 53 5.9 E 9 15 5 8 1022.2 1021.6 0.0
22/10:00am 22.6 20.9 13.7 57 5.2 ENE 15 20 8 11 1022.4 1021.8 0.0
22/09:30am 21.3 19.4 14.2 64 4.2 E 17 22 9 12 1022.5 1021.9 0.0
22/09:00am 19.8 17.5 14.0 69 3.4 ENE 19 24 10 13 1022.4 1021.8 0.0
22/08:30am 17.7 16.3 14.4 81 1.9 E 15 19 8 10 1022.3 1021.7 0.0
22/08:00am 16.2 15.0 14.0 87 1.3 E 13 19 7 10 1022.1 1021.5 0.0
22/07:30am 14.1 12.5 12.8 92 0.7 SE 13 15 7 8 1021.8 1021.2 0.0
22/07:00am 13.2 11.4 12.1 93 0.6 ESE 13 17 7 9 1021.6 1021.0 0.0
22/06:30am 12.8 9.5 11.7 93 0.6 E 20 22 11 12 1021.0 1020.3 0.0
22/06:00am 12.8 10.1 11.7 93 0.6 ESE 17 20 9 11 1020.8 1020.2 0.0
22/05:30am 12.2 9.3 11.1 93 0.6 ESE 17 19 9 10 1020.5 1019.9 0.0
22/05:00am 12.4 10.3 11.1 92 0.7 ESE 13 15 7 8 1020.4 1019.8 0.0
22/04:30am 12.7 11.1 11.4 92 0.7 SE 11 15 6 8 1020.4 1019.8 0.0
22/04:00am 12.5 10.8 11.1 91 0.7 SE 11 13 6 7 1020.2 1019.6 0.0
22/03:30am 13.0 11.4 11.6 91 0.8 SE 11 15 6 8 1020.1 1019.5 0.0
22/03:00am 13.6 11.8 12.2 91 0.8 SE 13 17 7 9 1020.2 1019.6 0.0
22/02:30am 13.8 12.4 12.2 90 0.9 SE 11 15 6 8 1020.2 1019.6 0.0
22/02:00am 13.7 11.9 12.1 90 0.9 SE 13 17 7 9 1020.2 1019.6 0.0
22/01:30am 14.1 12.8 12.5 90 0.9 SSE 11 15 6 8 1020.2 1019.6 0.0
22/01:00am 13.8 12.4 12.2 90 0.9 SSE 11 13 6 7 1020.3 1019.7 0.0
22/12:30am 13.5 12.4 11.9 90 0.9 SSE 9 9 5 5 1020.2 1019.6 0.0
22/12:00am 13.8 13.2 12.2 90 0.9 SSE 7 11 4 6 1020.4 1019.8 0.0
 
Date/Time
EST
Temp
°C
App
Temp
°C
Dew
Point
°C
Rel
Hum
%
Delta-T
°C
Wind Press
QNH
hPa
Press
MSL
hPa
Rain since
9am
mm
Dir  Spd
km/h
Gust
km/h
Spd
kts
Gust
kts
21/11:30pm 13.1 13.0 10.8 86 1.2 SSE 2 7 1 4 1020.5 1019.9 0.0

Other Formats:

Comma delimited format used in spreadsheet applications
http://www.bom.gov.au/fwo/IDQ60801/IDQ60801.94542.axf

JavaScript Object Notation format (JSON) in row-major order
http://www.bom.gov.au/fwo/IDQ60801/IDQ60801.94542.json